createdAt,value
2022-09-04T00:01:29.910Z,6.87
2022-09-04T00:03:56.561Z,6.17
2022-09-04T00:06:23.335Z,6.40
2022-09-04T00:08:49.900Z,6.87
2022-09-04T00:11:17.280Z,6.67
2022-09-04T00:13:43.819Z,6.30
2022-09-04T00:16:10.472Z,5.70
2022-09-04T00:18:37.048Z,5.90
2022-09-04T00:21:03.594Z,6.20
2022-09-04T00:23:30.151Z,6.23
2022-09-04T00:25:56.701Z,5.67
2022-09-04T00:28:23.301Z,6.23
2022-09-04T00:30:49.893Z,5.07
2022-09-04T00:33:16.509Z,6.00
2022-09-04T00:35:43.102Z,6.10
2022-09-04T00:38:09.654Z,5.07
2022-09-04T00:40:36.215Z,5.90
2022-09-04T00:43:02.789Z,5.60
2022-09-04T00:45:29.413Z,6.17
2022-09-04T00:47:56.042Z,5.20
2022-09-04T00:50:22.627Z,6.03
2022-09-04T00:52:49.142Z,10.23
2022-09-04T00:55:20.233Z,6.70
2022-09-04T00:57:46.796Z,7.10
2022-09-04T01:00:13.350Z,7.33
2022-09-04T01:02:39.934Z,7.57
2022-09-04T01:05:06.504Z,6.50
2022-09-04T01:07:33.118Z,5.93
2022-09-04T01:09:59.680Z,5.87
2022-09-04T01:12:26.243Z,5.73
2022-09-04T01:14:53.098Z,6.03
2022-09-04T01:17:19.901Z,5.53
2022-09-04T01:19:46.461Z,6.13
2022-09-04T01:22:13.052Z,7.13
2022-09-04T01:24:39.705Z,7.20
2022-09-04T01:27:06.205Z,6.60
2022-09-04T01:29:32.806Z,7.67
2022-09-04T01:31:59.392Z,7.50
2022-09-04T01:34:25.935Z,7.40
2022-09-04T01:36:52.514Z,7.60
2022-09-04T01:39:19.949Z,6.77
2022-09-04T01:41:46.558Z,7.00
2022-09-04T01:44:13.124Z,7.13
2022-09-04T01:46:39.722Z,7.50
2022-09-04T01:49:06.281Z,8.10
2022-09-04T01:51:32.803Z,7.37
2022-09-04T01:53:59.394Z,7.20
2022-09-04T01:56:25.954Z,7.43
2022-09-04T01:58:52.504Z,8.00
2022-09-04T02:01:21.181Z,7.47
2022-09-04T02:03:48.031Z,7.77
2022-09-04T02:06:14.594Z,8.23
2022-09-04T02:08:41.164Z,8.00
2022-09-04T02:11:07.722Z,8.43
2022-09-04T02:13:34.289Z,7.93
2022-09-04T02:16:00.881Z,8.30
2022-09-04T02:18:27.478Z,9.13
2022-09-04T02:20:54.041Z,8.50
2022-09-04T02:23:20.601Z,8.60
2022-09-04T02:25:47.181Z,8.60
2022-09-04T02:28:13.737Z,8.50
2022-09-04T02:30:40.298Z,9.03
2022-09-04T02:33:06.822Z,9.33
2022-09-04T02:35:33.387Z,8.80
2022-09-04T02:37:59.947Z,7.90
2022-09-04T02:40:27.596Z,8.30
2022-09-04T02:42:54.308Z,9.97
2022-09-04T02:45:20.867Z,8.03
2022-09-04T02:47:47.445Z,8.70
2022-09-04T02:50:14.052Z,7.97
2022-09-04T02:52:40.611Z,8.07
2022-09-04T02:55:07.169Z,8.23
2022-09-04T02:57:33.866Z,11.00
2022-09-04T03:00:00.422Z,8.33
2022-09-04T03:02:27.031Z,8.90
2022-09-04T03:04:53.636Z,9.00
2022-09-04T03:07:20.190Z,8.40
2022-09-04T03:09:46.745Z,8.03
2022-09-04T03:12:13.274Z,8.30
2022-09-04T03:14:39.844Z,8.17
2022-09-04T03:17:06.401Z,8.47
2022-09-04T03:19:32.944Z,8.33
2022-09-04T03:22:01.642Z,8.30
2022-09-04T03:24:28.194Z,7.77
2022-09-04T03:26:54.772Z,7.30
2022-09-04T03:29:21.330Z,7.57
2022-09-04T03:31:47.940Z,8.03
2022-09-04T03:34:14.538Z,7.73
2022-09-04T03:36:41.097Z,6.80
2022-09-04T03:39:07.641Z,7.10
2022-09-04T03:41:34.214Z,7.10
2022-09-04T03:44:00.776Z,7.90
2022-09-04T03:46:27.312Z,7.93
2022-09-04T03:48:53.913Z,7.20
2022-09-04T03:51:20.486Z,7.10
2022-09-04T03:53:47.090Z,6.73
2022-09-04T03:56:13.645Z,6.90
2022-09-04T03:58:40.263Z,7.00
2022-09-04T04:01:07.221Z,7.00
2022-09-04T04:03:33.753Z,6.80
2022-09-04T04:06:00.322Z,6.33
2022-09-04T04:08:26.856Z,6.87
2022-09-04T04:10:53.424Z,7.40
2022-09-04T04:13:19.978Z,6.83
2022-09-04T04:15:47.601Z,7.13
2022-09-04T04:18:14.182Z,6.83
2022-09-04T04:20:40.734Z,6.37
2022-09-04T04:23:07.311Z,6.23
2022-09-04T04:25:33.830Z,5.77
2022-09-04T04:28:00.490Z,6.50
2022-09-04T04:30:27.066Z,5.70
2022-09-04T04:32:53.567Z,5.93
2022-09-04T04:35:20.086Z,5.80
2022-09-04T04:37:46.653Z,5.23
2022-09-04T04:40:13.337Z,6.07
2022-09-04T04:42:39.954Z,6.83
2022-09-04T04:45:06.529Z,6.07
2022-09-04T04:47:33.082Z,5.70
2022-09-04T04:49:59.658Z,6.07
2022-09-04T04:52:26.219Z,6.20
2022-09-04T04:54:52.789Z,6.83
2022-09-04T04:57:19.341Z,6.43
2022-09-04T04:59:45.898Z,5.90
2022-09-04T05:02:12.541Z,6.47
2022-09-04T05:04:39.116Z,6.30
2022-09-04T05:07:05.626Z,5.50
2022-09-04T05:09:32.151Z,6.33
2022-09-04T05:11:58.709Z,6.57
2022-09-04T05:14:25.264Z,5.70
2022-09-04T05:16:55.519Z,5.63
2022-09-04T05:19:22.579Z,5.50
2022-09-04T05:21:49.083Z,5.67
2022-09-04T05:24:15.581Z,5.70
2022-09-04T05:26:42.168Z,5.47
2022-09-04T05:29:08.677Z,5.50
2022-09-04T05:31:37.713Z,5.70
2022-09-04T05:34:04.684Z,5.40
2022-09-04T05:36:31.194Z,6.20
2022-09-04T05:38:57.794Z,5.63
2022-09-04T05:41:24.462Z,6.23
2022-09-04T05:43:51.027Z,6.00
2022-09-04T05:46:17.590Z,6.57
2022-09-04T05:48:44.136Z,7.07
2022-09-04T05:51:10.642Z,6.43
2022-09-04T05:53:37.161Z,6.60
2022-09-04T05:56:12.867Z,6.80
2022-09-04T05:58:39.374Z,6.23
2022-09-04T06:01:06.042Z,6.23
2022-09-04T06:03:32.617Z,6.30
2022-09-04T06:05:59.121Z,7.20
2022-09-04T06:08:28.706Z,6.40
2022-09-04T06:10:55.534Z,7.70
2022-09-04T06:13:22.152Z,6.83
2022-09-04T06:15:48.821Z,6.90
2022-09-04T06:18:15.423Z,6.60
2022-09-04T06:20:41.985Z,7.13
2022-09-04T06:23:08.561Z,6.73
2022-09-04T06:25:35.060Z,6.40
2022-09-04T06:28:01.710Z,7.30
2022-09-04T06:30:28.282Z,6.37
2022-09-04T06:32:54.806Z,6.87
2022-09-04T06:35:21.320Z,6.63
2022-09-04T06:37:47.875Z,6.77
2022-09-04T06:40:14.407Z,7.73
2022-09-04T06:42:40.970Z,7.53
2022-09-04T06:45:07.474Z,7.07
2022-09-04T06:47:34.014Z,8.13
2022-09-04T06:50:00.568Z,7.93
2022-09-04T06:52:27.170Z,8.60
2022-09-04T06:54:53.857Z,7.43
2022-09-04T06:57:20.422Z,8.00
2022-09-04T06:59:46.918Z,8.00
2022-09-04T07:02:13.599Z,8.77
2022-09-04T07:04:40.266Z,8.17
2022-09-04T07:07:06.818Z,7.90
2022-09-04T07:09:33.386Z,8.23
2022-09-04T07:11:59.889Z,8.37
2022-09-04T07:14:26.472Z,7.77
2022-09-04T07:16:52.982Z,8.27
2022-09-04T07:19:19.510Z,7.40
2022-09-04T07:21:46.079Z,8.00
2022-09-04T07:24:12.637Z,8.67
2022-09-04T07:26:39.141Z,8.07
2022-09-04T07:29:05.815Z,7.97
2022-09-04T07:31:32.415Z,8.37
2022-09-04T07:33:58.958Z,7.70
2022-09-04T07:36:29.546Z,8.07
2022-09-04T07:38:58.341Z,7.63
2022-09-04T07:41:24.873Z,7.90
2022-09-04T07:43:54.735Z,8.17
2022-09-04T07:46:21.644Z,7.93
2022-09-04T07:48:48.379Z,8.17
2022-09-04T07:51:14.938Z,8.73
2022-09-04T07:53:41.492Z,8.27
2022-09-04T07:56:08.083Z,8.43
2022-09-04T07:58:34.596Z,8.37
2022-09-04T08:01:01.162Z,8.13
2022-09-04T08:03:27.746Z,8.40
2022-09-04T08:05:54.250Z,8.00
2022-09-04T08:08:20.875Z,8.53
2022-09-04T08:10:47.578Z,8.47
2022-09-04T08:13:14.117Z,8.33
2022-09-04T08:15:42.734Z,8.67
2022-09-04T08:18:09.516Z,8.67
2022-09-04T08:20:36.030Z,9.17
2022-09-04T08:23:02.530Z,8.67
2022-09-04T08:25:29.050Z,8.60
2022-09-04T08:27:55.625Z,8.90
2022-09-04T08:30:22.218Z,9.30
2022-09-04T08:32:48.775Z,8.50
2022-09-04T08:35:15.334Z,8.60
2022-09-04T08:37:41.863Z,8.23
2022-09-04T08:40:08.442Z,8.57
2022-09-04T08:42:35.042Z,9.00
2022-09-04T08:45:01.598Z,8.83
2022-09-04T08:47:28.362Z,8.30
2022-09-04T08:49:55.057Z,7.77
2022-09-04T08:52:21.619Z,7.07
2022-09-04T08:54:48.210Z,7.90
2022-09-04T08:57:14.765Z,7.93
2022-09-04T08:59:41.331Z,8.57
2022-09-04T09:02:07.951Z,7.77
2022-09-04T09:04:34.537Z,8.30
2022-09-04T09:07:01.117Z,7.60
2022-09-04T09:09:27.776Z,7.87
2022-09-04T09:11:54.366Z,7.80
2022-09-04T09:14:20.917Z,7.50
2022-09-04T09:16:47.469Z,7.67
2022-09-04T09:19:14.057Z,7.40
2022-09-04T09:21:40.622Z,7.97
2022-09-04T09:24:07.148Z,7.70
2022-09-04T09:26:33.707Z,7.03
2022-09-04T09:29:00.256Z,7.83
2022-09-04T09:31:26.758Z,7.57
2022-09-04T09:33:53.318Z,7.50
2022-09-04T09:36:20.986Z,7.60
2022-09-04T09:38:47.541Z,7.17
2022-09-04T09:41:14.104Z,6.90
2022-09-04T09:43:40.626Z,7.10
2022-09-04T09:46:07.230Z,6.83
2022-09-04T09:48:33.833Z,7.53
2022-09-04T09:51:00.405Z,6.67
2022-09-04T09:53:26.906Z,6.50
2022-09-04T09:55:53.464Z,6.47
2022-09-04T09:58:20.242Z,5.90
2022-09-04T10:00:46.774Z,6.60
2022-09-04T10:03:13.368Z,5.73
2022-09-04T10:05:39.974Z,6.70
2022-09-04T10:08:06.562Z,6.63
2022-09-04T10:10:33.277Z,6.03
2022-09-04T10:12:59.857Z,6.10
2022-09-04T10:15:26.429Z,5.43
2022-09-04T10:17:52.987Z,5.60
2022-09-04T10:20:19.574Z,5.53
2022-09-04T10:22:46.149Z,5.90
2022-09-04T10:25:12.717Z,5.67
2022-09-04T10:27:43.822Z,5.20
2022-09-04T10:30:10.649Z,5.70
2022-09-04T10:32:37.213Z,5.10
2022-09-04T10:35:03.822Z,5.70
2022-09-04T10:37:30.325Z,4.97
2022-09-04T10:39:56.931Z,4.60
2022-09-04T10:42:23.545Z,4.83
2022-09-04T10:44:50.052Z,5.20
2022-09-04T10:47:16.632Z,4.57
2022-09-04T10:49:43.240Z,4.80
2022-09-04T10:52:09.798Z,4.10
2022-09-04T10:54:36.371Z,4.20
2022-09-04T10:57:02.889Z,4.20
2022-09-04T10:59:29.453Z,4.20
2022-09-04T11:01:56.082Z,4.00
2022-09-04T11:04:22.692Z,3.87
2022-09-04T11:06:49.191Z,4.20
2022-09-04T11:09:15.782Z,3.90
2022-09-04T11:11:42.351Z,3.40
2022-09-04T11:14:08.913Z,3.97
2022-09-04T11:16:35.452Z,3.60
2022-09-04T11:19:02.046Z,3.70
2022-09-04T11:21:28.592Z,3.87
2022-09-04T11:23:55.097Z,3.80
2022-09-04T11:26:21.662Z,3.43
2022-09-04T11:28:48.394Z,3.07
2022-09-04T11:31:15.022Z,3.20
2022-09-04T11:33:41.608Z,2.83
2022-09-04T11:36:08.207Z,3.50
2022-09-04T11:41:15.111Z,3.20
2022-09-04T11:43:41.614Z,3.20
2022-09-04T11:46:08.189Z,2.97
2022-09-04T11:48:34.796Z,3.30
2022-09-04T11:51:01.298Z,3.40
2022-09-04T11:53:27.857Z,3.60
2022-09-04T11:55:54.398Z,3.83
2022-09-04T11:58:20.907Z,4.00
2022-09-04T12:00:47.582Z,3.17
2022-09-04T12:03:14.171Z,3.70
2022-09-04T12:05:40.666Z,3.00
2022-09-04T12:08:07.222Z,3.10
2022-09-04T12:10:33.798Z,3.23
2022-09-04T12:13:00.353Z,3.57
2022-09-04T12:15:41.598Z,3.50
2022-09-04T12:18:08.106Z,3.50
2022-09-04T12:20:34.674Z,3.23
2022-09-04T12:23:01.275Z,3.20
2022-09-04T12:25:27.834Z,3.10
2022-09-04T12:27:54.414Z,3.20
2022-09-04T12:30:21.011Z,3.10
2022-09-04T12:32:47.574Z,3.00
2022-09-04T12:35:14.257Z,3.40
2022-09-04T12:37:40.845Z,3.40
2022-09-04T12:40:07.484Z,3.30
2022-09-04T12:42:34.073Z,3.43
2022-09-04T12:45:00.666Z,2.80
2022-09-04T12:47:27.229Z,3.47
2022-09-04T12:49:53.796Z,3.63
2022-09-04T12:52:20.402Z,3.33
2022-09-04T12:54:46.902Z,3.63
2022-09-04T12:57:13.406Z,3.93
2022-09-04T12:59:39.977Z,3.40
2022-09-04T13:02:06.614Z,3.43
2022-09-04T13:04:33.293Z,2.07
2022-09-04T13:06:59.849Z,1.30
2022-09-04T13:09:27.456Z,1.57
2022-09-04T13:11:54.029Z,1.60
2022-09-04T13:14:20.532Z,1.30
2022-09-04T13:16:47.033Z,1.50
2022-09-04T13:19:13.641Z,1.90
2022-09-04T13:21:40.867Z,1.93
2022-09-04T13:24:07.429Z,1.80
2022-09-04T13:26:34.028Z,2.30
2022-09-04T13:29:00.595Z,2.40
2022-09-04T13:31:27.728Z,2.63
2022-09-04T13:33:54.344Z,2.40
2022-09-04T13:36:22.984Z,2.57
2022-09-04T13:38:49.730Z,2.30
2022-09-04T13:41:16.302Z,2.27
2022-09-04T13:43:42.860Z,2.40
2022-09-04T13:46:09.440Z,2.40
2022-09-04T13:48:35.990Z,2.30
2022-09-04T13:51:02.546Z,2.47
2022-09-04T13:53:39.852Z,2.53
2022-09-04T13:56:06.516Z,2.30
2022-09-04T13:58:33.095Z,2.40
2022-09-04T14:00:59.680Z,2.57
2022-09-04T14:03:26.420Z,2.67
2022-09-04T14:05:53.013Z,2.20
2022-09-04T14:08:19.691Z,2.13
2022-09-04T14:10:46.371Z,2.33
2022-09-04T14:13:12.938Z,2.40
2022-09-04T14:15:39.488Z,2.63
2022-09-04T14:18:06.074Z,2.50
2022-09-04T14:20:32.642Z,2.57
2022-09-04T14:22:59.296Z,2.70
2022-09-04T14:25:29.910Z,5.67
2022-09-04T14:27:57.200Z,3.03
2022-09-04T14:30:23.979Z,5.50
2022-09-04T14:32:50.727Z,7.13
2022-09-04T14:35:17.240Z,6.20
2022-09-04T14:37:43.803Z,2.80
2022-09-04T14:40:10.386Z,3.43
2022-09-04T14:42:36.909Z,3.07
2022-09-04T14:45:03.445Z,3.20
2022-09-04T14:47:30.066Z,2.27
2022-09-04T14:49:56.574Z,2.40
2022-09-04T14:52:23.175Z,2.60
2022-09-04T14:54:49.731Z,2.67
2022-09-04T14:57:16.301Z,2.40
2022-09-04T14:59:42.953Z,2.50
2022-09-04T15:02:09.639Z,2.23
2022-09-04T15:04:37.032Z,2.30
2022-09-04T15:07:11.950Z,2.60
2022-09-04T15:09:38.754Z,2.60
2022-09-04T15:12:23.719Z,2.47
2022-09-04T15:14:51.520Z,2.77
2022-09-04T15:17:18.972Z,2.47
2022-09-04T15:19:45.529Z,2.67
2022-09-04T15:22:12.214Z,2.30
2022-09-04T15:24:38.777Z,2.20
2022-09-04T15:27:05.336Z,2.30
2022-09-04T15:29:33.473Z,2.33
2022-09-04T15:32:00.023Z,2.23
2022-09-04T15:34:26.655Z,2.60
2022-09-04T15:36:53.208Z,2.00
2022-09-04T15:39:20.518Z,2.03
2022-09-04T15:41:47.135Z,2.23
2022-09-04T15:44:13.733Z,2.23
2022-09-04T15:46:40.339Z,2.20
2022-09-04T15:49:06.973Z,2.20
2022-09-04T15:51:33.491Z,2.20
2022-09-04T15:54:00.099Z,2.10
2022-09-04T15:56:26.714Z,2.27
2022-09-04T15:58:53.281Z,2.30
2022-09-04T16:01:19.891Z,2.10
2022-09-04T16:03:46.453Z,2.20
2022-09-04T16:06:13.028Z,2.23
2022-09-04T16:08:39.529Z,2.43
2022-09-04T16:11:06.100Z,2.30
2022-09-04T16:13:32.658Z,2.53
2022-09-04T16:16:03.521Z,2.60
2022-09-04T16:18:30.884Z,2.20
2022-09-04T16:20:57.444Z,1.97
2022-09-04T16:23:24.002Z,2.17
2022-09-04T16:25:51.452Z,2.47
2022-09-04T16:28:18.145Z,2.30
2022-09-04T16:30:44.761Z,2.10
2022-09-04T16:33:25.096Z,2.20
2022-09-04T16:35:54.144Z,2.23
2022-09-04T16:38:24.095Z,2.30
2022-09-04T16:40:50.934Z,2.20
2022-09-04T16:43:17.481Z,2.23
2022-09-04T16:45:44.063Z,2.17
2022-09-04T16:48:15.808Z,2.40
2022-09-04T16:50:57.191Z,2.60
2022-09-04T16:53:25.984Z,2.63
2022-09-04T16:55:52.551Z,2.43
2022-09-04T16:58:19.217Z,2.57
2022-09-04T17:00:45.843Z,2.47
2022-09-04T17:03:12.494Z,2.37
2022-09-04T17:05:39.123Z,2.40
2022-09-04T17:08:05.679Z,2.60
2022-09-04T17:10:36.176Z,2.70
2022-09-04T17:13:03.161Z,2.47
2022-09-04T17:15:32.447Z,3.07
2022-09-04T17:17:59.054Z,2.97
2022-09-04T17:20:38.432Z,3.77
2022-09-04T17:28:56.583Z,2.70
2022-09-04T17:29:16.213Z,2.30
2022-09-04T17:29:16.514Z,2.57
2022-09-04T17:31:31.779Z,2.50
2022-09-04T17:39:52.913Z,2.67
2022-09-04T17:40:36.303Z,2.27
2022-09-04T17:41:34.558Z,2.37
2022-09-04T17:42:18.323Z,2.30
2022-09-04T17:44:45.194Z,2.70
2022-09-04T17:47:11.745Z,2.90
2022-09-04T17:49:39.309Z,2.80
2022-09-04T17:52:05.812Z,2.53
2022-09-04T17:54:32.366Z,2.50
2022-09-04T17:56:58.966Z,2.70
2022-09-04T17:59:25.524Z,2.53
2022-09-04T18:01:52.109Z,2.30
2022-09-04T18:04:21.939Z,2.40
2022-09-04T18:06:49.076Z,2.17
2022-09-04T18:09:15.631Z,2.30
2022-09-04T18:12:00.363Z,2.70
2022-09-04T18:14:27.302Z,2.60
2022-09-04T18:17:12.011Z,2.80
2022-09-04T18:19:39.506Z,2.60
2022-09-04T18:22:25.202Z,2.63
2022-09-04T18:24:52.610Z,3.20
2022-09-04T18:27:19.131Z,2.83
2022-09-04T18:32:43.182Z,2.93
2022-09-04T18:37:10.293Z,2.80
2022-09-04T18:37:20.593Z,2.83
2022-09-04T18:38:05.310Z,3.17
2022-09-04T18:40:40.709Z,2.60
2022-09-04T18:50:31.844Z,3.20
2022-09-04T18:50:34.631Z,3.03
2022-09-04T18:50:36.971Z,2.80
2022-09-04T18:51:38.103Z,3.47
2022-09-04T18:54:04.645Z,3.57
2022-09-04T18:56:31.184Z,2.97
2022-09-04T18:58:57.750Z,3.23
2022-09-04T19:01:27.212Z,3.00
2022-09-04T19:03:54.217Z,3.10
2022-09-04T19:06:20.774Z,2.70
2022-09-04T19:08:47.837Z,3.20
2022-09-04T19:11:21.053Z,3.10
2022-09-04T19:13:48.079Z,3.47
2022-09-04T19:16:14.663Z,3.23
2022-09-04T19:18:41.328Z,3.20
2022-09-04T19:21:08.153Z,2.80
2022-09-04T19:23:36.593Z,3.13
2022-09-04T19:26:03.150Z,3.10
2022-09-04T19:28:29.696Z,3.13
2022-09-04T19:30:56.309Z,3.30
2022-09-04T19:33:22.809Z,3.10
2022-09-04T19:35:49.384Z,2.90
2022-09-04T19:44:15.332Z,2.67
2022-09-04T19:45:57.736Z,3.00
2022-09-04T19:46:18.774Z,3.07
2022-09-04T19:46:42.366Z,3.00
2022-09-04T19:49:33.429Z,2.70
2022-09-04T19:53:32.969Z,3.10
2022-09-04T19:54:43.409Z,2.67
2022-09-04T19:57:32.521Z,3.50
2022-09-04T20:00:00.832Z,3.33
2022-09-04T20:02:46.920Z,3.50
2022-09-04T20:05:13.495Z,3.30
2022-09-04T20:07:41.680Z,3.20
2022-09-04T20:10:08.349Z,3.20
2022-09-04T20:12:34.927Z,3.10
2022-09-04T20:15:01.462Z,3.10
2022-09-04T20:17:27.967Z,3.43
2022-09-04T20:19:54.461Z,2.90
2022-09-04T20:22:21.135Z,2.87
2022-09-04T20:25:01.661Z,3.13
2022-09-04T20:27:29.002Z,3.30
2022-09-04T20:29:55.558Z,3.40
2022-09-04T20:32:22.195Z,3.40
2022-09-04T20:34:48.806Z,3.30
2022-09-04T20:37:15.357Z,3.43
2022-09-04T20:39:41.997Z,3.30
2022-09-04T20:42:08.653Z,3.43
2022-09-04T20:44:40.727Z,3.43
2022-09-04T20:52:48.681Z,3.43
2022-09-04T20:52:49.952Z,4.13
2022-09-04T20:53:12.380Z,3.67
2022-09-04T20:55:46.343Z,3.57
2022-09-04T21:03:09.941Z,3.60
2022-09-04T21:03:17.934Z,3.67
2022-09-04T21:03:46.667Z,3.77
2022-09-04T21:06:13.337Z,3.17
2022-09-04T21:08:39.899Z,3.53
2022-09-04T21:11:18.243Z,3.73
2022-09-04T21:13:52.899Z,3.40
2022-09-04T21:16:19.516Z,3.50
2022-09-04T21:18:46.102Z,3.80
2022-09-04T21:21:32.671Z,3.90
2022-09-04T21:24:03.421Z,3.57
2022-09-04T21:26:32.330Z,3.23
2022-09-04T21:29:10.959Z,3.30
2022-09-04T21:31:44.146Z,3.40
2022-09-04T21:34:11.642Z,3.47
2022-09-04T21:36:38.225Z,2.93
2022-09-04T21:39:04.730Z,3.00
2022-09-04T21:41:31.289Z,3.20
2022-09-04T21:43:57.863Z,3.37
2022-09-04T21:46:24.441Z,3.50
2022-09-04T21:48:55.622Z,3.20
2022-09-04T21:51:29.112Z,3.60
2022-09-04T21:53:55.956Z,2.87
2022-09-04T22:00:25.384Z,3.50
2022-09-04T22:02:43.814Z,2.90
2022-09-04T22:02:47.216Z,2.87
2022-09-04T22:04:42.772Z,3.20
2022-09-04T22:09:48.618Z,3.50
2022-09-04T22:13:30.042Z,2.83
2022-09-04T22:13:46.219Z,3.60
2022-09-04T22:15:30.660Z,3.63
2022-09-04T22:17:57.234Z,3.30
2022-09-04T22:20:23.798Z,2.90
2022-09-04T22:22:50.783Z,3.27
2022-09-04T22:25:17.290Z,3.03
2022-09-04T22:28:07.391Z,2.80
2022-09-04T22:30:32.666Z,3.10
2022-09-04T22:32:59.180Z,3.07
2022-09-04T22:35:27.818Z,3.07
2022-09-04T22:38:02.809Z,3.40
2022-09-04T22:40:29.330Z,3.77
2022-09-04T22:42:55.868Z,3.10
2022-09-04T22:45:22.423Z,3.50
2022-09-04T22:47:48.972Z,3.13
2022-09-04T22:50:15.563Z,2.63
2022-09-04T22:52:42.128Z,2.83
2022-09-04T22:55:23.327Z,3.63
2022-09-04T22:57:55.330Z,2.60
2022-09-04T23:00:21.899Z,3.20
2022-09-04T23:03:07.623Z,3.17
2022-09-04T23:05:34.963Z,3.10
2022-09-04T23:13:44.485Z,2.90
2022-09-04T23:13:47.121Z,2.93
2022-09-04T23:14:01.899Z,2.50
2022-09-04T23:16:26.278Z,2.50
2022-09-04T23:20:48.796Z,2.93
2022-09-04T23:26:34.067Z,2.70
2022-09-04T23:26:50.366Z,2.40
2022-09-04T23:27:14.672Z,2.87
2022-09-04T23:29:55.813Z,2.43
2022-09-04T23:32:26.052Z,2.93
2022-09-04T23:35:14.982Z,3.10
2022-09-04T23:37:39.157Z,2.67
2022-09-04T23:40:05.762Z,2.43
2022-09-04T23:42:32.375Z,2.47
2022-09-04T23:44:58.978Z,2.70
2022-09-04T23:47:47.986Z,2.50
2022-09-04T23:50:12.053Z,3.17
2022-09-04T23:52:48.582Z,3.40
2022-09-04T23:55:15.948Z,2.50
2022-09-04T23:57:42.497Z,3.13
